createdAt,value
2022-07-28T00:00:35.028Z,15.90
2022-07-28T00:03:03.246Z,15.90
2022-07-28T00:05:31.098Z,15.90
2022-07-28T00:08:01.763Z,15.90
2022-07-28T00:10:29.806Z,15.80
2022-07-28T00:13:06.902Z,15.80
2022-07-28T00:15:34.887Z,15.80
2022-07-28T00:18:02.674Z,15.80
2022-07-28T00:20:30.929Z,15.80
2022-07-28T00:22:58.683Z,15.80
2022-07-28T00:25:26.580Z,15.80
2022-07-28T00:27:54.222Z,15.80
2022-07-28T00:30:22.024Z,15.80
2022-07-28T00:32:50.137Z,15.80
2022-07-28T00:35:18.035Z,15.90
2022-07-28T00:37:59.128Z,15.80
2022-07-28T00:40:48.109Z,15.80
2022-07-28T00:43:16.125Z,15.80
2022-07-28T00:45:44.143Z,15.80
2022-07-28T00:48:11.836Z,15.70
2022-07-28T00:50:40.574Z,15.80
2022-07-28T00:53:08.967Z,15.70
2022-07-28T00:56:03.481Z,15.70
2022-07-28T00:58:27.992Z,15.70
2022-07-28T01:00:56.358Z,15.60
2022-07-28T01:03:25.534Z,15.60
2022-07-28T01:06:30.674Z,15.60
2022-07-28T01:09:10.001Z,15.60
2022-07-28T01:12:03.070Z,15.40
2022-07-28T01:14:49.781Z,15.50
2022-07-28T01:17:33.263Z,15.40
2022-07-28T01:20:37.524Z,15.30
2022-07-28T01:23:28.163Z,15.30
2022-07-28T01:26:35.644Z,15.30
2022-07-28T01:29:21.910Z,15.20
2022-07-28T01:32:14.371Z,15.20
2022-07-28T01:34:59.358Z,15.20
2022-07-28T01:37:32.432Z,15.20
2022-07-28T01:40:05.552Z,15.10
2022-07-28T01:42:39.286Z,15.10
2022-07-28T01:45:09.304Z,15.10
2022-07-28T01:47:37.987Z,15.10
2022-07-28T01:50:11.356Z,15.00
2022-07-28T01:52:42.801Z,14.90
2022-07-28T01:55:11.515Z,14.90
2022-07-28T01:57:40.562Z,14.90
2022-07-28T02:00:11.686Z,14.90
2022-07-28T02:02:49.487Z,14.90
2022-07-28T02:05:21.750Z,14.80
2022-07-28T02:07:51.169Z,14.80
2022-07-28T02:10:20.187Z,14.80
2022-07-28T02:12:50.041Z,14.60
2022-07-28T02:15:19.483Z,14.60
2022-07-28T02:17:48.580Z,14.60
2022-07-28T02:20:18.449Z,14.60
2022-07-28T02:22:51.362Z,14.60
2022-07-28T02:25:21.636Z,14.60
2022-07-28T02:28:08.172Z,14.60
2022-07-28T02:30:44.376Z,14.50
2022-07-28T02:33:24.430Z,14.50
2022-07-28T02:36:31.282Z,14.50
2022-07-28T02:39:07.489Z,14.40
2022-07-28T02:41:41.397Z,14.40
2022-07-28T02:44:21.673Z,14.40
2022-07-28T02:46:55.361Z,14.40
2022-07-28T02:49:32.005Z,14.30
2022-07-28T02:52:02.919Z,14.30
2022-07-28T02:54:32.930Z,14.20
2022-07-28T02:57:01.634Z,14.20
2022-07-28T02:59:30.034Z,14.20
2022-07-28T03:01:59.397Z,14.10
2022-07-28T03:04:47.111Z,14.10
2022-07-28T03:07:15.204Z,14.00
2022-07-28T03:09:47.177Z,14.00
2022-07-28T03:12:15.623Z,13.90
2022-07-28T03:14:44.380Z,13.90
2022-07-28T03:17:12.211Z,13.80
2022-07-28T03:19:40.027Z,13.80
2022-07-28T03:22:10.294Z,13.80
2022-07-28T03:24:43.341Z,13.70
2022-07-28T03:27:20.978Z,13.70
2022-07-28T03:30:03.982Z,13.70
2022-07-28T03:32:35.515Z,13.60
2022-07-28T03:35:04.459Z,13.60
2022-07-28T03:37:58.453Z,13.50
2022-07-28T03:40:31.787Z,13.40
2022-07-28T03:43:03.522Z,13.40
2022-07-28T03:45:35.075Z,13.40
2022-07-28T03:48:03.467Z,13.40
2022-07-28T03:50:33.898Z,13.30
2022-07-28T03:53:03.135Z,13.20
2022-07-28T03:55:30.927Z,13.20
2022-07-28T03:57:58.603Z,13.20
2022-07-28T04:00:26.374Z,13.20
2022-07-28T04:02:54.198Z,13.10
2022-07-28T04:05:21.893Z,13.10
2022-07-28T04:07:49.602Z,13.00
2022-07-28T04:10:19.123Z,13.00
2022-07-28T04:12:55.672Z,12.90
2022-07-28T04:15:26.251Z,12.90
2022-07-28T04:17:55.828Z,12.80
2022-07-28T04:20:25.244Z,12.80
2022-07-28T04:22:54.254Z,12.80
2022-07-28T04:25:25.179Z,12.80
2022-07-28T04:27:54.199Z,12.80
2022-07-28T04:30:24.937Z,12.80
2022-07-28T04:32:55.142Z,12.80
2022-07-28T04:35:28.203Z,12.80
2022-07-28T04:37:58.498Z,12.80
2022-07-28T04:40:27.604Z,12.80
2022-07-28T04:42:56.071Z,12.90
2022-07-28T04:45:23.760Z,12.90
2022-07-28T04:47:51.934Z,12.90
2022-07-28T04:50:21.496Z,12.90
2022-07-28T04:52:59.361Z,12.90
2022-07-28T04:55:27.425Z,13.00
2022-07-28T04:57:55.033Z,13.00
2022-07-28T05:00:23.197Z,13.10
2022-07-28T05:02:51.596Z,13.10
2022-07-28T05:05:19.310Z,13.20
2022-07-28T05:07:46.965Z,13.20
2022-07-28T05:10:15.028Z,13.20
2022-07-28T05:12:42.762Z,13.30
2022-07-28T05:15:10.619Z,13.30
2022-07-28T05:17:38.237Z,13.40
2022-07-28T05:20:06.841Z,13.40
2022-07-28T05:22:44.295Z,13.50
2022-07-28T05:25:17.899Z,13.60
2022-07-28T05:27:47.521Z,13.60
2022-07-28T05:30:16.943Z,13.70
2022-07-28T05:32:49.435Z,13.80
2022-07-28T05:35:17.408Z,13.90
2022-07-28T05:37:45.279Z,14.00
2022-07-28T05:40:15.368Z,14.00
2022-07-28T05:42:44.845Z,14.20
2022-07-28T05:45:16.905Z,14.20
2022-07-28T05:47:52.725Z,14.30
2022-07-28T05:50:22.667Z,14.30
2022-07-28T05:52:51.322Z,14.30
2022-07-28T05:55:19.422Z,14.40
2022-07-28T05:57:47.467Z,14.50
2022-07-28T06:00:18.943Z,14.50
2022-07-28T06:02:51.267Z,14.50
2022-07-28T06:05:23.487Z,14.60
2022-07-28T06:07:51.956Z,14.60
2022-07-28T06:10:23.500Z,14.70
2022-07-28T06:12:57.884Z,14.80
2022-07-28T06:15:28.128Z,14.90
2022-07-28T06:17:56.055Z,14.90
2022-07-28T06:20:25.587Z,15.00
2022-07-28T06:22:55.138Z,15.10
2022-07-28T06:25:27.068Z,15.10
2022-07-28T06:27:57.364Z,15.20
2022-07-28T06:30:26.439Z,15.30
2022-07-28T06:32:54.867Z,15.30
2022-07-28T06:35:22.968Z,15.40
2022-07-28T06:37:52.433Z,15.40
2022-07-28T06:40:23.032Z,15.40
2022-07-28T06:42:51.656Z,15.50
2022-07-28T06:45:21.215Z,15.50
2022-07-28T06:47:53.209Z,15.60
2022-07-28T06:50:26.164Z,15.60
2022-07-28T06:52:58.977Z,15.70
2022-07-28T06:55:34.581Z,15.70
2022-07-28T06:58:06.699Z,15.80
2022-07-28T07:00:34.389Z,15.80
2022-07-28T07:03:02.178Z,15.80
2022-07-28T07:05:32.418Z,15.90
2022-07-28T07:08:00.657Z,15.90
2022-07-28T07:10:28.378Z,15.90
2022-07-28T07:12:56.002Z,16.00
2022-07-28T07:15:23.676Z,16.10
2022-07-28T07:17:52.269Z,16.20
2022-07-28T07:20:20.346Z,16.30
2022-07-28T07:22:48.787Z,16.40
2022-07-28T07:25:18.664Z,16.50
2022-07-28T07:27:47.426Z,16.60
2022-07-28T07:30:16.285Z,16.50
2022-07-28T07:32:44.287Z,16.60
2022-07-28T07:35:12.621Z,16.70
2022-07-28T07:37:41.065Z,16.80
2022-07-28T07:40:09.750Z,17.00
2022-07-28T07:42:38.076Z,17.10
2022-07-28T07:45:06.667Z,17.30
2022-07-28T07:47:34.375Z,17.50
2022-07-28T07:50:04.285Z,17.60
2022-07-28T07:52:32.360Z,17.80
2022-07-28T07:55:00.134Z,18.00
2022-07-28T07:57:27.778Z,18.10
2022-07-28T07:59:55.509Z,18.30
2022-07-28T08:02:23.397Z,18.40
2022-07-28T08:04:51.105Z,18.60
2022-07-28T08:07:22.057Z,18.50
2022-07-28T08:09:50.106Z,18.60
2022-07-28T08:12:17.821Z,18.80
2022-07-28T08:14:53.806Z,18.90
2022-07-28T08:17:26.030Z,19.00
2022-07-28T08:19:55.706Z,19.20
2022-07-28T08:22:24.234Z,19.40
2022-07-28T08:24:52.167Z,19.60
2022-07-28T08:27:19.818Z,19.70
2022-07-28T08:29:47.466Z,19.40
2022-07-28T08:32:15.271Z,19.40
2022-07-28T08:34:43.311Z,19.50
2022-07-28T08:37:12.001Z,19.40
2022-07-28T08:39:39.626Z,19.40
2022-07-28T08:42:14.063Z,19.40
2022-07-28T08:44:51.376Z,19.50
2022-07-28T08:47:21.826Z,19.50
2022-07-28T08:49:51.952Z,19.50
2022-07-28T08:52:25.460Z,19.80
2022-07-28T08:54:56.111Z,20.00
2022-07-28T08:57:31.211Z,20.00
2022-07-28T08:59:59.135Z,19.90
2022-07-28T09:02:29.268Z,19.90
2022-07-28T09:04:59.648Z,19.90
2022-07-28T09:07:27.662Z,20.10
2022-07-28T09:10:00.607Z,20.20
2022-07-28T09:12:30.610Z,20.40
2022-07-28T09:14:58.539Z,20.70
2022-07-28T09:17:26.498Z,20.80
2022-07-28T09:20:01.801Z,20.80
2022-07-28T09:22:33.150Z,20.70
2022-07-28T09:25:06.441Z,20.60
2022-07-28T09:27:44.791Z,20.70
2022-07-28T09:30:13.147Z,20.90
2022-07-28T09:32:55.618Z,21.10
2022-07-28T09:35:27.479Z,21.20
2022-07-28T09:38:01.726Z,21.40
2022-07-28T09:43:18.054Z,22.00
2022-07-28T09:45:47.873Z,22.20
2022-07-28T09:48:20.704Z,22.50
2022-07-28T09:50:48.542Z,22.40
2022-07-28T09:53:28.223Z,22.20
2022-07-28T09:56:02.180Z,22.00
2022-07-28T09:58:30.254Z,21.70
2022-07-28T10:01:07.800Z,21.60
2022-07-28T10:03:41.119Z,21.40
2022-07-28T10:06:28.558Z,21.50
2022-07-28T10:09:03.192Z,21.70
2022-07-28T10:11:31.742Z,21.90
2022-07-28T10:14:07.238Z,21.90
2022-07-28T10:16:52.784Z,22.00
2022-07-28T10:19:22.929Z,21.80
2022-07-28T10:21:58.802Z,21.90
2022-07-28T10:24:31.819Z,21.80
2022-07-28T10:27:01.887Z,21.70
2022-07-28T10:29:31.788Z,21.60
2022-07-28T10:32:07.665Z,21.40
2022-07-28T10:34:44.572Z,21.30
2022-07-28T10:37:22.782Z,21.30
2022-07-28T10:40:10.370Z,21.40
2022-07-28T10:42:48.833Z,21.40
2022-07-28T10:46:05.699Z,21.30
2022-07-28T10:48:43.488Z,21.30
2022-07-28T10:51:15.948Z,21.30
2022-07-28T10:54:11.054Z,21.30
2022-07-28T10:56:50.339Z,21.20
2022-07-28T10:59:38.143Z,21.20
2022-07-28T11:02:06.478Z,21.20
2022-07-28T11:05:04.690Z,21.30
2022-07-28T11:07:41.139Z,21.40
2022-07-28T11:10:19.318Z,21.40
2022-07-28T11:12:50.517Z,21.50
2022-07-28T11:15:37.886Z,21.40
2022-07-28T11:18:09.621Z,21.40
2022-07-28T11:21:01.037Z,21.40
2022-07-28T11:23:46.390Z,21.40
2022-07-28T11:26:25.545Z,21.40
2022-07-28T11:29:08.384Z,21.40
2022-07-28T11:31:45.447Z,21.50
2022-07-28T11:34:18.275Z,21.50
2022-07-28T11:36:58.231Z,21.40
2022-07-28T11:39:29.379Z,21.40
2022-07-28T11:41:57.874Z,21.50
2022-07-28T11:44:33.044Z,21.40
2022-07-28T11:47:21.390Z,21.40
2022-07-28T11:50:15.828Z,21.40
2022-07-28T11:52:55.835Z,21.40
2022-07-28T11:55:55.378Z,21.50
2022-07-28T11:58:34.892Z,21.50
2022-07-28T12:01:19.222Z,21.60
2022-07-28T12:03:56.018Z,21.70
2022-07-28T12:06:29.638Z,21.80
2022-07-28T12:09:11.638Z,21.90
2022-07-28T12:11:41.723Z,22.00
2022-07-28T12:14:33.841Z,22.10
2022-07-28T12:17:04.974Z,22.10
2022-07-28T12:20:14.260Z,22.10
2022-07-28T12:23:03.222Z,22.10
2022-07-28T12:25:40.558Z,22.30
2022-07-28T12:28:23.338Z,22.50
2022-07-28T12:30:54.835Z,22.80
2022-07-28T12:33:29.534Z,22.90
2022-07-28T12:36:07.275Z,22.90
2022-07-28T12:38:35.396Z,22.80
2022-07-28T12:41:14.034Z,22.90
2022-07-28T12:43:56.102Z,22.90
2022-07-28T12:46:32.450Z,22.90
2022-07-28T12:49:03.147Z,23.00
2022-07-28T12:51:45.362Z,22.80
2022-07-28T12:54:14.722Z,22.70
2022-07-28T12:56:53.665Z,22.70
2022-07-28T12:59:21.318Z,22.80
2022-07-28T13:01:57.738Z,22.90
2022-07-28T13:04:47.443Z,23.00
2022-07-28T13:07:21.181Z,23.10
2022-07-28T13:10:12.455Z,23.10
2022-07-28T13:12:40.558Z,23.20
2022-07-28T13:15:17.470Z,23.20
2022-07-28T13:17:51.807Z,23.20
2022-07-28T13:20:20.769Z,23.20
2022-07-28T13:22:48.456Z,23.10
2022-07-28T13:25:19.231Z,23.20
2022-07-28T13:27:52.326Z,23.10
2022-07-28T13:30:23.791Z,23.00
2022-07-28T13:32:54.777Z,22.80
2022-07-28T13:35:22.867Z,22.50
2022-07-28T13:37:50.886Z,22.50
2022-07-28T13:40:24.030Z,22.60
2022-07-28T13:42:52.831Z,22.70
2022-07-28T13:45:22.223Z,22.90
2022-07-28T13:47:52.027Z,23.00
2022-07-28T13:50:20.675Z,23.10
2022-07-28T13:52:48.781Z,23.00
2022-07-28T13:55:19.826Z,22.80
2022-07-28T13:57:50.780Z,22.80
2022-07-28T14:00:22.569Z,22.90
2022-07-28T14:02:51.212Z,23.00
2022-07-28T14:05:19.317Z,23.10
2022-07-28T14:07:49.220Z,23.10
2022-07-28T14:10:18.217Z,23.20
2022-07-28T14:12:46.208Z,23.40
2022-07-28T14:15:17.117Z,23.40
2022-07-28T14:17:47.612Z,23.70
2022-07-28T14:20:20.012Z,23.20
2022-07-28T14:22:47.786Z,23.00
2022-07-28T14:25:21.232Z,22.90
2022-07-28T14:27:57.597Z,22.80
2022-07-28T14:30:27.072Z,22.80
2022-07-28T14:33:00.005Z,22.90
2022-07-28T14:35:31.423Z,23.00
2022-07-28T14:38:49.740Z,23.10
2022-07-28T14:40:50.655Z,23.00
2022-07-28T14:43:28.732Z,22.90
2022-07-28T14:46:14.597Z,23.00
2022-07-28T14:48:46.605Z,23.10
2022-07-28T14:51:14.649Z,23.00
2022-07-28T14:53:49.774Z,22.90
2022-07-28T14:56:19.611Z,22.80
2022-07-28T14:58:47.317Z,22.60
2022-07-28T15:01:15.212Z,22.60
2022-07-28T15:03:43.330Z,22.60
2022-07-28T15:06:11.296Z,22.70
2022-07-28T15:08:47.979Z,22.60
2022-07-28T15:11:15.902Z,22.70
2022-07-28T15:13:43.652Z,22.70
2022-07-28T15:16:11.676Z,22.80
2022-07-28T15:18:39.674Z,22.90
2022-07-28T15:21:08.576Z,23.00
2022-07-28T15:23:36.583Z,23.00
2022-07-28T15:26:07.059Z,22.90
2022-07-28T15:28:36.755Z,22.90
2022-07-28T15:31:06.719Z,23.00
2022-07-28T15:33:59.330Z,22.90
2022-07-28T15:36:34.001Z,22.80
2022-07-28T15:39:13.117Z,22.60
2022-07-28T15:42:11.711Z,22.50
2022-07-28T15:44:39.582Z,22.50
2022-07-28T15:47:47.135Z,22.30
2022-07-28T15:50:22.319Z,22.20
2022-07-28T15:52:50.177Z,22.30
2022-07-28T15:55:17.982Z,22.30
2022-07-28T15:58:15.777Z,22.20
2022-07-28T16:00:41.558Z,22.10
2022-07-28T16:03:09.273Z,22.20
2022-07-28T16:05:37.092Z,22.30
2022-07-28T16:08:10.866Z,22.20
2022-07-28T16:10:39.682Z,22.20
2022-07-28T16:13:35.610Z,22.10
2022-07-28T16:16:07.553Z,22.00
2022-07-28T16:18:45.639Z,22.10
2022-07-28T16:21:43.275Z,22.00
2022-07-28T16:24:18.784Z,22.10
2022-07-28T16:26:55.753Z,22.00
2022-07-28T16:29:23.991Z,22.00
2022-07-28T16:31:51.781Z,22.10
2022-07-28T16:34:19.456Z,22.00
2022-07-28T16:36:48.089Z,21.90
2022-07-28T16:39:16.093Z,21.80
2022-07-28T16:41:46.840Z,21.70
2022-07-28T16:44:18.425Z,21.70
2022-07-28T16:46:46.715Z,21.70
2022-07-28T16:49:16.359Z,21.60
2022-07-28T16:51:49.189Z,21.60
2022-07-28T16:54:17.677Z,21.60
2022-07-28T16:56:50.189Z,21.60
2022-07-28T16:59:47.845Z,21.60
2022-07-28T17:02:57.153Z,21.60
2022-07-28T17:05:27.528Z,21.60
2022-07-28T17:08:22.111Z,21.60
2022-07-28T17:10:59.641Z,21.70
2022-07-28T17:13:28.183Z,21.60
2022-07-28T17:16:14.537Z,21.60
2022-07-28T17:19:02.425Z,21.60
2022-07-28T17:21:47.054Z,21.60
2022-07-28T17:24:21.337Z,21.70
2022-07-28T17:33:06.056Z,21.80
2022-07-28T17:35:43.005Z,21.80
2022-07-28T17:38:12.727Z,21.80
2022-07-28T17:40:43.304Z,21.90
2022-07-28T17:46:26.754Z,21.90
2022-07-28T17:49:27.014Z,21.80
2022-07-28T17:52:22.149Z,21.70
2022-07-28T17:55:19.869Z,21.70
2022-07-28T17:58:20.131Z,21.70
2022-07-28T18:00:58.169Z,21.60
2022-07-28T18:03:59.190Z,21.60
2022-07-28T18:06:28.537Z,21.50
2022-07-28T18:09:05.271Z,21.50
2022-07-28T18:11:57.681Z,21.40
2022-07-28T18:14:29.272Z,21.40
2022-07-28T18:17:00.120Z,21.40
2022-07-28T18:19:45.529Z,21.40
2022-07-28T18:22:16.719Z,21.20
2022-07-28T18:24:44.561Z,21.40
2022-07-28T18:27:12.438Z,21.40
2022-07-28T18:29:58.319Z,21.20
2022-07-28T18:32:29.384Z,21.20
2022-07-28T18:34:58.229Z,21.10
2022-07-28T18:37:31.980Z,21.00
2022-07-28T18:40:16.657Z,21.00
2022-07-28T18:42:50.923Z,20.90
2022-07-28T18:45:33.472Z,20.90
2022-07-28T18:48:43.214Z,20.80
2022-07-28T18:51:55.581Z,20.80
2022-07-28T18:55:20.072Z,21.10
2022-07-28T18:57:54.813Z,20.80
2022-07-28T19:00:27.965Z,20.70
2022-07-28T19:03:17.404Z,20.60
2022-07-28T19:05:55.431Z,20.70
2022-07-28T19:08:28.278Z,20.60
2022-07-28T19:11:17.352Z,20.60
2022-07-28T19:14:18.961Z,20.50
2022-07-28T19:17:34.417Z,20.50
2022-07-28T19:23:16.117Z,20.50
2022-07-28T19:25:51.361Z,20.40
2022-07-28T19:28:37.651Z,20.40
2022-07-28T19:31:14.539Z,20.30
2022-07-28T19:34:25.952Z,20.20
2022-07-28T19:37:22.063Z,20.20
2022-07-28T19:39:54.639Z,20.20
2022-07-28T19:42:31.239Z,20.10
2022-07-28T19:45:32.622Z,20.00
2022-07-28T19:48:11.981Z,20.00
2022-07-28T19:50:51.006Z,20.00
2022-07-28T19:53:31.925Z,20.00
2022-07-28T19:56:37.555Z,20.00
2022-07-28T19:59:48.092Z,19.80
2022-07-28T20:02:43.597Z,19.90
2022-07-28T20:05:21.182Z,19.80
2022-07-28T20:07:52.319Z,19.70
2022-07-28T20:10:38.267Z,19.70
2022-07-28T20:13:18.294Z,19.60
2022-07-28T20:15:53.810Z,19.60
2022-07-28T20:18:45.192Z,19.50
2022-07-28T20:21:26.822Z,19.50
2022-07-28T20:24:16.779Z,19.50
2022-07-28T20:26:48.318Z,19.40
2022-07-28T20:29:17.318Z,19.30
2022-07-28T20:32:07.834Z,19.40
2022-07-28T20:34:40.729Z,19.40
2022-07-28T20:37:39.082Z,19.30
2022-07-28T20:40:27.098Z,19.30
2022-07-28T20:43:00.532Z,19.20
2022-07-28T20:45:36.120Z,19.20
2022-07-28T20:48:15.597Z,19.20
2022-07-28T20:50:51.325Z,19.10
2022-07-28T20:53:30.283Z,19.10
2022-07-28T20:55:58.241Z,19.00
2022-07-28T20:58:30.737Z,19.00
2022-07-28T21:01:07.806Z,18.90
2022-07-28T21:03:52.364Z,18.90
2022-07-28T21:06:24.910Z,18.90
2022-07-28T21:09:08.222Z,18.90
2022-07-28T21:11:38.417Z,18.90
2022-07-28T21:14:06.406Z,18.80
2022-07-28T21:17:03.487Z,18.90
2022-07-28T21:19:32.703Z,19.00
2022-07-28T21:22:18.467Z,18.90
2022-07-28T21:24:53.188Z,18.90
2022-07-28T21:27:24.214Z,18.80
2022-07-28T21:32:24.246Z,18.80
2022-07-28T21:34:55.113Z,18.70
2022-07-28T21:37:35.366Z,18.70
2022-07-28T21:40:04.001Z,18.60
2022-07-28T21:42:31.863Z,18.50
2022-07-28T21:44:59.924Z,18.50
2022-07-28T21:47:50.292Z,18.40
2022-07-28T21:50:21.625Z,18.50
2022-07-28T21:52:54.255Z,18.80
2022-07-28T21:55:25.188Z,18.60
2022-07-28T21:57:55.621Z,18.70
2022-07-28T22:00:39.347Z,18.70
2022-07-28T22:03:10.213Z,18.70
2022-07-28T22:05:40.416Z,18.60
2022-07-28T22:08:09.453Z,18.50
2022-07-28T22:10:37.094Z,18.30
2022-07-28T22:13:04.834Z,18.30
2022-07-28T22:15:32.607Z,18.20
2022-07-28T22:18:04.798Z,18.30
2022-07-28T22:20:39.328Z,18.30
2022-07-28T22:23:29.310Z,18.40
2022-07-28T22:26:23.573Z,18.30
2022-07-28T22:29:04.951Z,18.40
2022-07-28T22:32:15.726Z,18.30
2022-07-28T22:34:49.399Z,18.30
2022-07-28T22:37:20.229Z,18.20
2022-07-28T22:40:11.398Z,18.20
2022-07-28T22:42:51.550Z,18.20
2022-07-28T22:45:50.758Z,17.90
2022-07-28T22:48:25.359Z,18.20
2022-07-28T22:51:32.674Z,18.00
2022-07-28T22:54:10.742Z,18.00
2022-07-28T23:00:07.655Z,18.20
2022-07-28T23:03:06.494Z,18.00
2022-07-28T23:05:59.579Z,18.20
2022-07-28T23:08:40.372Z,18.20
2022-07-28T23:11:18.597Z,18.10
2022-07-28T23:13:59.030Z,18.00
2022-07-28T23:16:44.908Z,17.80
2022-07-28T23:19:25.078Z,18.20
2022-07-28T23:22:11.363Z,17.90
2022-07-28T23:25:27.851Z,17.90
2022-07-28T23:28:59.019Z,17.90
2022-07-28T23:31:46.708Z,17.90
2022-07-28T23:34:41.468Z,17.90
2022-07-28T23:37:32.427Z,17.90
2022-07-28T23:43:41.098Z,18.00
2022-07-28T23:46:27.872Z,18.00
2022-07-28T23:49:11.584Z,17.70
2022-07-28T23:51:57.228Z,17.80
2022-07-28T23:54:35.016Z,17.70
2022-07-28T23:57:04.101Z,17.70
2022-07-28T23:59:57.155Z,17.60
